sensor_id;sensor_type;location;lat;lon;timestamp;P1;durP1;ratioP1;P2;durP2;ratioP2
48199;SDS011;33990;44.602;10.976;2023-11-19T00:00:09;10.52;;;6.22;;
48199;SDS011;33990;44.602;10.976;2023-11-19T00:02:41;8.20;;;6.05;;
48199;SDS011;33990;44.602;10.976;2023-11-19T00:05:10;9.07;;;6.30;;
48199;SDS011;33990;44.602;10.976;2023-11-19T00:07:41;9.70;;;6.18;;
48199;SDS011;33990;44.602;10.976;2023-11-19T00:10:12;7.30;;;5.90;;
48199;SDS011;33990;44.602;10.976;2023-11-19T00:12:42;7.68;;;5.95;;
48199;SDS011;33990;44.602;10.976;2023-11-19T00:15:17;8.27;;;6.22;;
48199;SDS011;33990;44.602;10.976;2023-11-19T00:17:46;8.38;;;5.90;;
48199;SDS011;33990;44.602;10.976;2023-11-19T00:20:19;8.68;;;5.57;;
48199;SDS011;33990;44.602;10.976;2023-11-19T00:22:49;7.05;;;5.22;;
48199;SDS011;33990;44.602;10.976;2023-11-19T00:25:19;8.27;;;6.53;;
48199;SDS011;33990;44.602;10.976;2023-11-19T00:27:51;7.43;;;5.70;;
48199;SDS011;33990;44.602;10.976;2023-11-19T00:30:20;7.75;;;6.13;;
48199;SDS011;33990;44.602;10.976;2023-11-19T00:32:48;7.80;;;5.68;;
48199;SDS011;33990;44.602;10.976;2023-11-19T00:35:15;7.40;;;5.60;;
48199;SDS011;33990;44.602;10.976;2023-11-19T00:37:43;9.52;;;5.38;;
48199;SDS011;33990;44.602;10.976;2023-11-19T00:40:13;9.65;;;6.50;;
48199;SDS011;33990;44.602;10.976;2023-11-19T00:42:43;9.07;;;6.22;;
48199;SDS011;33990;44.602;10.976;2023-11-19T00:45:11;10.63;;;6.00;;
48199;SDS011;33990;44.602;10.976;2023-11-19T00:47:40;9.15;;;5.80;;
48199;SDS011;33990;44.602;10.976;2023-11-19T00:50:08;7.78;;;5.70;;
48199;SDS011;33990;44.602;10.976;2023-11-19T00:52:37;7.15;;;5.30;;
48199;SDS011;33990;44.602;10.976;2023-11-19T00:55:05;8.25;;;6.05;;
48199;SDS011;33990;44.602;10.976;2023-11-19T00:57:35;7.43;;;5.53;;
48199;SDS011;33990;44.602;10.976;2023-11-19T01:00:04;7.38;;;5.47;;
48199;SDS011;33990;44.602;10.976;2023-11-19T01:02:52;8.18;;;6.07;;
48199;SDS011;33990;44.602;10.976;2023-11-19T01:05:20;9.75;;;5.35;;
48199;SDS011;33990;44.602;10.976;2023-11-19T01:07:51;6.50;;;4.78;;
48199;SDS011;33990;44.602;10.976;2023-11-19T01:10:21;8.20;;;5.85;;
48199;SDS011;33990;44.602;10.976;2023-11-19T01:12:49;6.68;;;5.50;;
48199;SDS011;33990;44.602;10.976;2023-11-19T01:15:16;6.97;;;5.60;;
48199;SDS011;33990;44.602;10.976;2023-11-19T01:17:46;8.38;;;5.38;;
48199;SDS011;33990;44.602;10.976;2023-11-19T01:20:16;7.68;;;5.63;;
48199;SDS011;33990;44.602;10.976;2023-11-19T01:22:44;7.72;;;5.47;;
48199;SDS011;33990;44.602;10.976;2023-11-19T01:25:11;6.72;;;4.95;;
48199;SDS011;33990;44.602;10.976;2023-11-19T01:27:39;7.43;;;5.15;;
48199;SDS011;33990;44.602;10.976;2023-11-19T01:30:06;6.43;;;4.78;;
48199;SDS011;33990;44.602;10.976;2023-11-19T01:32:40;6.45;;;5.40;;
48199;SDS011;33990;44.602;10.976;2023-11-19T01:35:07;7.47;;;5.65;;
48199;SDS011;33990;44.602;10.976;2023-11-19T01:37:35;7.20;;;5.10;;
48199;SDS011;33990;44.602;10.976;2023-11-19T01:40:03;7.20;;;5.15;;
48199;SDS011;33990;44.602;10.976;2023-11-19T01:42:38;6.85;;;5.22;;
48199;SDS011;33990;44.602;10.976;2023-11-19T01:45:07;5.90;;;4.53;;
48199;SDS011;33990;44.602;10.976;2023-11-19T01:47:36;6.90;;;4.35;;
48199;SDS011;33990;44.602;10.976;2023-11-19T01:50:06;6.95;;;4.50;;
48199;SDS011;33990;44.602;10.976;2023-11-19T01:52:35;8.77;;;5.20;;
48199;SDS011;33990;44.602;10.976;2023-11-19T01:55:06;5.30;;;4.38;;
48199;SDS011;33990;44.602;10.976;2023-11-19T01:57:37;6.20;;;4.65;;
48199;SDS011;33990;44.602;10.976;2023-11-19T02:00:08;7.95;;;4.57;;
48199;SDS011;33990;44.602;10.976;2023-11-19T02:02:42;6.10;;;4.88;;
48199;SDS011;33990;44.602;10.976;2023-11-19T02:05:12;6.45;;;4.80;;
48199;SDS011;33990;44.602;10.976;2023-11-19T02:07:43;8.00;;;4.72;;
48199;SDS011;33990;44.602;10.976;2023-11-19T02:10:12;5.93;;;4.32;;
48199;SDS011;33990;44.602;10.976;2023-11-19T02:12:41;6.32;;;4.72;;
48199;SDS011;33990;44.602;10.976;2023-11-19T02:15:12;5.95;;;4.72;;
48199;SDS011;33990;44.602;10.976;2023-11-19T02:17:39;6.75;;;4.95;;
48199;SDS011;33990;44.602;10.976;2023-11-19T02:20:07;6.97;;;5.22;;
48199;SDS011;33990;44.602;10.976;2023-11-19T02:22:41;6.10;;;4.45;;
48199;SDS011;33990;44.602;10.976;2023-11-19T02:25:15;6.00;;;4.30;;
48199;SDS011;33990;44.602;10.976;2023-11-19T02:27:54;5.22;;;4.25;;
48199;SDS011;33990;44.602;10.976;2023-11-19T02:30:24;7.30;;;4.72;;
48199;SDS011;33990;44.602;10.976;2023-11-19T02:32:56;5.78;;;4.57;;
48199;SDS011;33990;44.602;10.976;2023-11-19T02:35:25;5.10;;;3.97;;
48199;SDS011;33990;44.602;10.976;2023-11-19T02:37:56;6.05;;;4.38;;
48199;SDS011;33990;44.602;10.976;2023-11-19T02:40:24;6.78;;;4.90;;
48199;SDS011;33990;44.602;10.976;2023-11-19T02:42:52;5.47;;;4.25;;
48199;SDS011;33990;44.602;10.976;2023-11-19T02:45:23;5.38;;;4.20;;
48199;SDS011;33990;44.602;10.976;2023-11-19T02:47:51;5.72;;;4.78;;
48199;SDS011;33990;44.602;10.976;2023-11-19T02:50:19;5.68;;;3.92;;
48199;SDS011;33990;44.602;10.976;2023-11-19T02:52:53;5.45;;;3.85;;
48199;SDS011;33990;44.602;10.976;2023-11-19T02:55:24;6.05;;;5.05;;
48199;SDS011;33990;44.602;10.976;2023-11-19T02:57:52;6.05;;;3.88;;
48199;SDS011;33990;44.602;10.976;2023-11-19T03:00:21;6.05;;;4.07;;
48199;SDS011;33990;44.602;10.976;2023-11-19T03:02:58;5.80;;;4.00;;
48199;SDS011;33990;44.602;10.976;2023-11-19T03:05:27;5.55;;;4.40;;
48199;SDS011;33990;44.602;10.976;2023-11-19T03:07:57;5.10;;;4.00;;
48199;SDS011;33990;44.602;10.976;2023-11-19T03:10:24;6.03;;;4.15;;
48199;SDS011;33990;44.602;10.976;2023-11-19T03:12:52;5.43;;;3.95;;
48199;SDS011;33990;44.602;10.976;2023-11-19T03:15:19;5.65;;;3.80;;
48199;SDS011;33990;44.602;10.976;2023-11-19T03:17:48;4.97;;;3.95;;
48199;SDS011;33990;44.602;10.976;2023-11-19T03:20:16;6.38;;;4.22;;
48199;SDS011;33990;44.602;10.976;2023-11-19T03:22:44;5.68;;;3.50;;
48199;SDS011;33990;44.602;10.976;2023-11-19T03:25:11;5.78;;;4.10;;
48199;SDS011;33990;44.602;10.976;2023-11-19T03:27:39;5.07;;;3.60;;
48199;SDS011;33990;44.602;10.976;2023-11-19T03:30:09;6.07;;;3.97;;
48199;SDS011;33990;44.602;10.976;2023-11-19T03:32:37;4.53;;;3.78;;
48199;SDS011;33990;44.602;10.976;2023-11-19T03:35:06;4.57;;;3.55;;
48199;SDS011;33990;44.602;10.976;2023-11-19T03:37:34;4.75;;;3.88;;
48199;SDS011;33990;44.602;10.976;2023-11-19T03:40:02;5.18;;;3.65;;
48199;SDS011;33990;44.602;10.976;2023-11-19T03:42:31;4.57;;;3.75;;
48199;SDS011;33990;44.602;10.976;2023-11-19T03:44:58;5.60;;;3.88;;
48199;SDS011;33990;44.602;10.976;2023-11-19T03:47:26;4.45;;;3.50;;
48199;SDS011;33990;44.602;10.976;2023-11-19T03:49:54;6.00;;;4.20;;
48199;SDS011;33990;44.602;10.976;2023-11-19T03:52:21;4.65;;;3.67;;
48199;SDS011;33990;44.602;10.976;2023-11-19T03:54:48;5.78;;;4.20;;
48199;SDS011;33990;44.602;10.976;2023-11-19T03:57:16;4.90;;;3.28;;
48199;SDS011;33990;44.602;10.976;2023-11-19T03:59:43;6.18;;;3.58;;
48199;SDS011;33990;44.602;10.976;2023-11-19T04:02:11;5.95;;;3.53;;
48199;SDS011;33990;44.602;10.976;2023-11-19T04:04:39;5.05;;;4.25;;
48199;SDS011;33990;44.602;10.976;2023-11-19T04:07:06;4.90;;;3.10;;
48199;SDS011;33990;44.602;10.976;2023-11-19T04:09:34;4.70;;;3.53;;
48199;SDS011;33990;44.602;10.976;2023-11-19T04:12:01;4.07;;;2.90;;
48199;SDS011;33990;44.602;10.976;2023-11-19T04:14:29;4.50;;;3.25;;
48199;SDS011;33990;44.602;10.976;2023-11-19T04:16:56;4.90;;;3.42;;
48199;SDS011;33990;44.602;10.976;2023-11-19T04:19:25;4.78;;;3.45;;
48199;SDS011;33990;44.602;10.976;2023-11-19T04:21:52;4.93;;;3.40;;
48199;SDS011;33990;44.602;10.976;2023-11-19T04:24:19;6.70;;;3.63;;
48199;SDS011;33990;44.602;10.976;2023-11-19T04:26:47;4.97;;;3.80;;
48199;SDS011;33990;44.602;10.976;2023-11-19T04:29:15;6.18;;;3.22;;
48199;SDS011;33990;44.602;10.976;2023-11-19T04:31:46;4.75;;;3.50;;
48199;SDS011;33990;44.602;10.976;2023-11-19T04:34:14;5.38;;;3.45;;
48199;SDS011;33990;44.602;10.976;2023-11-19T04:36:42;4.18;;;3.00;;
48199;SDS011;33990;44.602;10.976;2023-11-19T04:39:10;4.10;;;3.13;;
48199;SDS011;33990;44.602;10.976;2023-11-19T04:41:46;4.93;;;3.00;;
48199;SDS011;33990;44.602;10.976;2023-11-19T04:44:15;5.63;;;3.47;;
48199;SDS011;33990;44.602;10.976;2023-11-19T04:46:43;4.55;;;3.33;;
48199;SDS011;33990;44.602;10.976;2023-11-19T04:49:11;4.75;;;3.60;;
48199;SDS011;33990;44.602;10.976;2023-11-19T04:51:42;4.13;;;2.92;;
48199;SDS011;33990;44.602;10.976;2023-11-19T04:54:10;4.63;;;2.88;;
48199;SDS011;33990;44.602;10.976;2023-11-19T04:56:38;6.22;;;3.22;;
48199;SDS011;33990;44.602;10.976;2023-11-19T04:59:06;5.35;;;3.33;;
48199;SDS011;33990;44.602;10.976;2023-11-19T05:01:34;5.57;;;3.30;;
48199;SDS011;33990;44.602;10.976;2023-11-19T05:04:02;4.70;;;3.28;;
48199;SDS011;33990;44.602;10.976;2023-11-19T05:06:30;4.70;;;3.13;;
48199;SDS011;33990;44.602;10.976;2023-11-19T05:08:59;5.38;;;3.05;;
48199;SDS011;33990;44.602;10.976;2023-11-19T05:11:34;4.80;;;3.03;;
48199;SDS011;33990;44.602;10.976;2023-11-19T05:14:02;4.40;;;3.10;;
48199;SDS011;33990;44.602;10.976;2023-11-19T05:16:33;5.82;;;3.58;;
48199;SDS011;33990;44.602;10.976;2023-11-19T05:19:00;4.78;;;3.10;;
48199;SDS011;33990;44.602;10.976;2023-11-19T05:21:28;4.00;;;2.90;;
48199;SDS011;33990;44.602;10.976;2023-11-19T05:23:56;5.10;;;3.17;;
48199;SDS011;33990;44.602;10.976;2023-11-19T05:26:23;5.03;;;3.05;;
48199;SDS011;33990;44.602;10.976;2023-11-19T05:28:51;4.85;;;2.95;;
48199;SDS011;33990;44.602;10.976;2023-11-19T05:31:18;4.85;;;2.95;;
48199;SDS011;33990;44.602;10.976;2023-11-19T05:33:46;4.93;;;3.15;;
48199;SDS011;33990;44.602;10.976;2023-11-19T05:36:13;4.32;;;2.95;;
48199;SDS011;33990;44.602;10.976;2023-11-19T05:38:41;3.97;;;3.03;;
48199;SDS011;33990;44.602;10.976;2023-11-19T05:41:08;5.38;;;3.05;;
48199;SDS011;33990;44.602;10.976;2023-11-19T05:43:35;3.97;;;2.97;;
48199;SDS011;33990;44.602;10.976;2023-11-19T05:46:04;3.70;;;2.88;;
48199;SDS011;33990;44.602;10.976;2023-11-19T05:48:46;4.45;;;3.10;;
48199;SDS011;33990;44.602;10.976;2023-11-19T05:51:14;5.00;;;2.45;;
48199;SDS011;33990;44.602;10.976;2023-11-19T05:53:44;5.75;;;2.13;;
48199;SDS011;33990;44.602;10.976;2023-11-19T05:56:17;3.85;;;2.90;;
48199;SDS011;33990;44.602;10.976;2023-11-19T05:58:48;3.83;;;2.42;;
48199;SDS011;33990;44.602;10.976;2023-11-19T06:01:18;4.63;;;2.97;;
48199;SDS011;33990;44.602;10.976;2023-11-19T06:03:46;3.30;;;2.30;;
48199;SDS011;33990;44.602;10.976;2023-11-19T06:06:17;4.00;;;2.47;;
48199;SDS011;33990;44.602;10.976;2023-11-19T06:08:45;5.60;;;3.17;;
48199;SDS011;33990;44.602;10.976;2023-11-19T06:11:14;3.58;;;2.42;;
48199;SDS011;33990;44.602;10.976;2023-11-19T06:13:45;4.68;;;2.80;;
48199;SDS011;33990;44.602;10.976;2023-11-19T06:16:15;4.20;;;2.75;;
48199;SDS011;33990;44.602;10.976;2023-11-19T06:18:42;4.50;;;2.75;;
48199;SDS011;33990;44.602;10.976;2023-11-19T06:21:11;4.45;;;3.05;;
48199;SDS011;33990;44.602;10.976;2023-11-19T06:23:39;4.75;;;2.97;;
48199;SDS011;33990;44.602;10.976;2023-11-19T06:26:06;4.57;;;2.83;;
48199;SDS011;33990;44.602;10.976;2023-11-19T06:28:34;3.83;;;2.17;;
48199;SDS011;33990;44.602;10.976;2023-11-19T06:31:01;3.33;;;2.20;;
48199;SDS011;33990;44.602;10.976;2023-11-19T06:33:30;3.67;;;2.20;;
48199;SDS011;33990;44.602;10.976;2023-11-19T06:35:58;3.58;;;2.13;;
48199;SDS011;33990;44.602;10.976;2023-11-19T06:38:26;4.13;;;2.42;;
48199;SDS011;33990;44.602;10.976;2023-11-19T06:40:54;3.45;;;2.28;;
48199;SDS011;33990;44.602;10.976;2023-11-19T06:43:21;3.17;;;2.28;;
48199;SDS011;33990;44.602;10.976;2023-11-19T06:45:49;3.85;;;2.35;;
48199;SDS011;33990;44.602;10.976;2023-11-19T06:48:16;4.03;;;2.95;;
48199;SDS011;33990;44.602;10.976;2023-11-19T06:50:43;4.18;;;2.70;;
48199;SDS011;33990;44.602;10.976;2023-11-19T06:53:11;4.18;;;2.80;;
48199;SDS011;33990;44.602;10.976;2023-11-19T06:55:38;4.22;;;2.67;;
48199;SDS011;33990;44.602;10.976;2023-11-19T06:58:05;3.60;;;2.15;;
48199;SDS011;33990;44.602;10.976;2023-11-19T07:00:34;3.20;;;2.30;;
48199;SDS011;33990;44.602;10.976;2023-11-19T07:03:02;4.05;;;2.30;;
48199;SDS011;33990;44.602;10.976;2023-11-19T07:05:30;3.95;;;2.40;;
48199;SDS011;33990;44.602;10.976;2023-11-19T07:07:58;4.35;;;2.35;;
48199;SDS011;33990;44.602;10.976;2023-11-19T07:10:25;3.15;;;2.15;;
48199;SDS011;33990;44.602;10.976;2023-11-19T07:12:52;3.65;;;2.28;;
48199;SDS011;33990;44.602;10.976;2023-11-19T07:15:20;3.35;;;2.05;;
48199;SDS011;33990;44.602;10.976;2023-11-19T07:17:47;4.05;;;2.67;;
48199;SDS011;33990;44.602;10.976;2023-11-19T07:20:27;4.95;;;2.35;;
48199;SDS011;33990;44.602;10.976;2023-11-19T07:22:54;4.22;;;2.47;;
48199;SDS011;33990;44.602;10.976;2023-11-19T07:25:24;4.18;;;2.33;;
48199;SDS011;33990;44.602;10.976;2023-11-19T07:27:52;3.22;;;1.98;;
48199;SDS011;33990;44.602;10.976;2023-11-19T07:30:19;4.43;;;2.55;;
48199;SDS011;33990;44.602;10.976;2023-11-19T07:32:47;3.92;;;2.10;;
48199;SDS011;33990;44.602;10.976;2023-11-19T07:35:15;3.90;;;2.30;;
48199;SDS011;33990;44.602;10.976;2023-11-19T07:37:42;3.88;;;2.22;;
48199;SDS011;33990;44.602;10.976;2023-11-19T07:40:10;4.32;;;2.08;;
48199;SDS011;33990;44.602;10.976;2023-11-19T07:42:38;3.47;;;2.40;;
48199;SDS011;33990;44.602;10.976;2023-11-19T07:45:05;3.10;;;2.08;;
48199;SDS011;33990;44.602;10.976;2023-11-19T07:47:34;4.38;;;2.40;;
48199;SDS011;33990;44.602;10.976;2023-11-19T07:50:01;4.85;;;2.40;;
48199;SDS011;33990;44.602;10.976;2023-11-19T07:52:29;3.75;;;2.15;;
48199;SDS011;33990;44.602;10.976;2023-11-19T07:54:56;3.75;;;2.35;;
48199;SDS011;33990;44.602;10.976;2023-11-19T07:57:23;5.70;;;2.22;;
48199;SDS011;33990;44.602;10.976;2023-11-19T07:59:51;3.20;;;2.10;;
48199;SDS011;33990;44.602;10.976;2023-11-19T08:02:18;3.92;;;2.40;;
48199;SDS011;33990;44.602;10.976;2023-11-19T08:04:46;5.07;;;1.98;;
48199;SDS011;33990;44.602;10.976;2023-11-19T08:07:18;3.88;;;2.35;;
48199;SDS011;33990;44.602;10.976;2023-11-19T08:09:46;3.53;;;2.38;;
48199;SDS011;33990;44.602;10.976;2023-11-19T08:12:13;3.35;;;2.10;;
48199;SDS011;33990;44.602;10.976;2023-11-19T08:14:44;5.00;;;2.40;;
48199;SDS011;33990;44.602;10.976;2023-11-19T08:17:12;4.68;;;2.38;;
48199;SDS011;33990;44.602;10.976;2023-11-19T08:19:39;3.75;;;2.17;;
48199;SDS011;33990;44.602;10.976;2023-11-19T08:22:07;3.45;;;2.28;;
48199;SDS011;33990;44.602;10.976;2023-11-19T08:24:36;5.03;;;2.20;;
48199;SDS011;33990;44.602;10.976;2023-11-19T08:27:03;4.65;;;2.20;;
48199;SDS011;33990;44.602;10.976;2023-11-19T08:29:31;4.53;;;2.20;;
48199;SDS011;33990;44.602;10.976;2023-11-19T08:32:00;4.05;;;2.10;;
48199;SDS011;33990;44.602;10.976;2023-11-19T08:34:29;4.75;;;2.13;;
48199;SDS011;33990;44.602;10.976;2023-11-19T08:36:56;5.05;;;2.67;;
48199;SDS011;33990;44.602;10.976;2023-11-19T08:39:26;3.83;;;2.20;;
48199;SDS011;33990;44.602;10.976;2023-11-19T08:41:53;3.22;;;1.95;;
48199;SDS011;33990;44.602;10.976;2023-11-19T08:44:22;4.93;;;2.03;;
48199;SDS011;33990;44.602;10.976;2023-11-19T08:46:50;3.97;;;2.13;;
48199;SDS011;33990;44.602;10.976;2023-11-19T08:49:17;3.47;;;1.80;;
48199;SDS011;33990;44.602;10.976;2023-11-19T08:51:45;4.05;;;2.20;;
48199;SDS011;33990;44.602;10.976;2023-11-19T08:54:12;3.92;;;2.20;;
48199;SDS011;33990;44.602;10.976;2023-11-19T08:56:41;3.38;;;2.10;;
48199;SDS011;33990;44.602;10.976;2023-11-19T08:59:08;3.60;;;2.10;;
48199;SDS011;33990;44.602;10.976;2023-11-19T09:01:36;3.30;;;2.15;;
48199;SDS011;33990;44.602;10.976;2023-11-19T09:04:03;4.40;;;2.40;;
48199;SDS011;33990;44.602;10.976;2023-11-19T09:06:31;4.30;;;2.10;;
48199;SDS011;33990;44.602;10.976;2023-11-19T09:08:59;2.90;;;1.70;;
48199;SDS011;33990;44.602;10.976;2023-11-19T09:11:30;3.55;;;2.17;;
48199;SDS011;33990;44.602;10.976;2023-11-19T09:13:57;3.45;;;2.08;;
48199;SDS011;33990;44.602;10.976;2023-11-19T09:16:25;3.25;;;1.85;;
48199;SDS011;33990;44.602;10.976;2023-11-19T09:18:52;3.88;;;2.22;;
48199;SDS011;33990;44.602;10.976;2023-11-19T09:21:19;5.90;;;2.10;;
48199;SDS011;33990;44.602;10.976;2023-11-19T09:23:47;2.75;;;2.00;;
48199;SDS011;33990;44.602;10.976;2023-11-19T09:26:16;3.30;;;1.70;;
48199;SDS011;33990;44.602;10.976;2023-11-19T09:28:43;3.17;;;1.80;;
48199;SDS011;33990;44.602;10.976;2023-11-19T09:31:14;3.40;;;2.20;;
48199;SDS011;33990;44.602;10.976;2023-11-19T09:33:42;3.42;;;2.17;;
48199;SDS011;33990;44.602;10.976;2023-11-19T09:36:13;4.18;;;1.67;;
48199;SDS011;33990;44.602;10.976;2023-11-19T09:38:40;3.63;;;2.20;;
48199;SDS011;33990;44.602;10.976;2023-11-19T09:41:09;4.28;;;2.28;;
48199;SDS011;33990;44.602;10.976;2023-11-19T09:43:39;7.03;;;2.17;;
48199;SDS011;33990;44.602;10.976;2023-11-19T09:46:06;3.05;;;2.15;;
48199;SDS011;33990;44.602;10.976;2023-11-19T09:48:39;3.28;;;1.80;;
48199;SDS011;33990;44.602;10.976;2023-11-19T09:51:10;4.80;;;2.00;;
48199;SDS011;33990;44.602;10.976;2023-11-19T09:53:38;4.07;;;2.10;;
48199;SDS011;33990;44.602;10.976;2023-11-19T09:56:07;3.47;;;1.90;;
48199;SDS011;33990;44.602;10.976;2023-11-19T09:58:35;3.17;;;1.83;;
48199;SDS011;33990;44.602;10.976;2023-11-19T10:01:03;3.80;;;1.88;;
48199;SDS011;33990;44.602;10.976;2023-11-19T10:03:36;3.78;;;1.95;;
48199;SDS011;33990;44.602;10.976;2023-11-19T10:06:07;4.25;;;2.30;;
48199;SDS011;33990;44.602;10.976;2023-11-19T10:08:39;3.75;;;2.40;;
48199;SDS011;33990;44.602;10.976;2023-11-19T10:11:07;5.93;;;2.78;;
48199;SDS011;33990;44.602;10.976;2023-11-19T10:13:35;5.18;;;1.83;;
48199;SDS011;33990;44.602;10.976;2023-11-19T10:16:09;3.17;;;1.80;;
48199;SDS011;33990;44.602;10.976;2023-11-19T10:18:45;4.38;;;2.13;;
48199;SDS011;33990;44.602;10.976;2023-11-19T10:21:14;3.65;;;1.98;;
48199;SDS011;33990;44.602;10.976;2023-11-19T10:26:26;3.90;;;2.15;;
48199;SDS011;33990;44.602;10.976;2023-11-19T10:28:55;3.47;;;2.30;;
48199;SDS011;33990;44.602;10.976;2023-11-19T10:31:23;3.42;;;2.10;;
48199;SDS011;33990;44.602;10.976;2023-11-19T10:33:54;3.38;;;2.10;;
48199;SDS011;33990;44.602;10.976;2023-11-19T10:36:21;3.70;;;1.80;;
48199;SDS011;33990;44.602;10.976;2023-11-19T10:38:54;4.35;;;2.40;;
48199;SDS011;33990;44.602;10.976;2023-11-19T10:41:27;4.20;;;2.28;;
48199;SDS011;33990;44.602;10.976;2023-11-19T10:43:55;3.50;;;2.17;;
48199;SDS011;33990;44.602;10.976;2023-11-19T10:46:23;4.10;;;2.67;;
48199;SDS011;33990;44.602;10.976;2023-11-19T10:49:03;3.97;;;2.25;;
48199;SDS011;33990;44.602;10.976;2023-11-19T10:51:31;3.85;;;2.47;;
48199;SDS011;33990;44.602;10.976;2023-11-19T10:54:01;3.45;;;2.08;;
48199;SDS011;33990;44.602;10.976;2023-11-19T10:56:33;4.45;;;2.10;;
48199;SDS011;33990;44.602;10.976;2023-11-19T10:59:02;2.97;;;1.70;;
48199;SDS011;33990;44.602;10.976;2023-11-19T11:01:50;3.67;;;2.00;;
48199;SDS011;33990;44.602;10.976;2023-11-19T11:04:25;3.13;;;1.80;;
48199;SDS011;33990;44.602;10.976;2023-11-19T11:06:54;4.20;;;1.98;;
48199;SDS011;33990;44.602;10.976;2023-11-19T11:09:26;3.42;;;2.30;;
48199;SDS011;33990;44.602;10.976;2023-11-19T11:11:55;3.40;;;2.10;;
48199;SDS011;33990;44.602;10.976;2023-11-19T11:14:27;4.50;;;2.40;;
48199;SDS011;33990;44.602;10.976;2023-11-19T11:16:55;3.00;;;1.95;;
48199;SDS011;33990;44.602;10.976;2023-11-19T11:19:23;3.10;;;2.10;;
48199;SDS011;33990;44.602;10.976;2023-11-19T11:21:52;3.25;;;2.22;;
48199;SDS011;33990;44.602;10.976;2023-11-19T11:24:45;5.53;;;2.47;;
48199;SDS011;33990;44.602;10.976;2023-11-19T11:30:52;4.63;;;1.77;;
48199;SDS011;33990;44.602;10.976;2023-11-19T11:38:28;2.63;;;1.65;;
48199;SDS011;33990;44.602;10.976;2023-11-19T11:41:42;4.13;;;1.80;;
48199;SDS011;33990;44.602;10.976;2023-11-19T11:43:56;2.85;;;1.42;;
48199;SDS011;33990;44.602;10.976;2023-11-19T11:49:07;3.30;;;1.40;;
48199;SDS011;33990;44.602;10.976;2023-11-19T12:02:09;2.38;;;1.45;;
48199;SDS011;33990;44.602;10.976;2023-11-19T12:04:49;2.53;;;1.25;;
48199;SDS011;33990;44.602;10.976;2023-11-19T12:07:19;2.90;;;1.45;;
48199;SDS011;33990;44.602;10.976;2023-11-19T12:09:51;2.67;;;1.50;;
48199;SDS011;33990;44.602;10.976;2023-11-19T12:12:22;2.65;;;1.48;;
48199;SDS011;33990;44.602;10.976;2023-11-19T12:15:00;3.58;;;1.70;;
48199;SDS011;33990;44.602;10.976;2023-11-19T12:20:01;3.20;;;2.03;;
48199;SDS011;33990;44.602;10.976;2023-11-19T12:22:30;2.90;;;1.73;;
48199;SDS011;33990;44.602;10.976;2023-11-19T12:24:57;4.13;;;2.60;;
48199;SDS011;33990;44.602;10.976;2023-11-19T12:27:26;4.40;;;2.45;;
48199;SDS011;33990;44.602;10.976;2023-11-19T12:29:55;4.38;;;2.38;;
48199;SDS011;33990;44.602;10.976;2023-11-19T12:32:23;3.78;;;2.22;;
48199;SDS011;33990;44.602;10.976;2023-11-19T12:34:51;4.82;;;3.13;;
48199;SDS011;33990;44.602;10.976;2023-11-19T12:37:20;5.43;;;2.70;;
48199;SDS011;33990;44.602;10.976;2023-11-19T12:39:47;4.68;;;2.40;;
48199;SDS011;33990;44.602;10.976;2023-11-19T12:42:15;4.15;;;2.50;;
48199;SDS011;33990;44.602;10.976;2023-11-19T12:45:00;4.63;;;2.83;;
48199;SDS011;33990;44.602;10.976;2023-11-19T12:47:28;4.50;;;2.88;;
48199;SDS011;33990;44.602;10.976;2023-11-19T12:49:58;4.85;;;2.78;;
48199;SDS011;33990;44.602;10.976;2023-11-19T12:52:26;4.13;;;2.50;;
48199;SDS011;33990;44.602;10.976;2023-11-19T12:54:54;4.97;;;2.85;;
48199;SDS011;33990;44.602;10.976;2023-11-19T12:57:21;3.70;;;2.63;;
48199;SDS011;33990;44.602;10.976;2023-11-19T13:00:06;5.70;;;2.30;;
48199;SDS011;33990;44.602;10.976;2023-11-19T13:02:46;3.60;;;2.33;;
48199;SDS011;33990;44.602;10.976;2023-11-19T13:08:03;4.75;;;2.10;;
48199;SDS011;33990;44.602;10.976;2023-11-19T13:10:52;4.65;;;2.22;;
48199;SDS011;33990;44.602;10.976;2023-11-19T13:13:22;7.05;;;2.53;;
48199;SDS011;33990;44.602;10.976;2023-11-19T13:15:49;5.65;;;2.35;;
48199;SDS011;33990;44.602;10.976;2023-11-19T13:18:17;4.68;;;1.83;;
48199;SDS011;33990;44.602;10.976;2023-11-19T13:20:44;4.45;;;1.90;;
48199;SDS011;33990;44.602;10.976;2023-11-19T13:23:11;4.65;;;2.08;;
48199;SDS011;33990;44.602;10.976;2023-11-19T13:25:39;3.17;;;1.70;;
48199;SDS011;33990;44.602;10.976;2023-11-19T13:28:06;7.93;;;1.70;;
48199;SDS011;33990;44.602;10.976;2023-11-19T13:30:33;4.00;;;2.05;;
48199;SDS011;33990;44.602;10.976;2023-11-19T13:33:01;5.93;;;1.73;;
48199;SDS011;33990;44.602;10.976;2023-11-19T13:35:28;4.75;;;1.80;;
48199;SDS011;33990;44.602;10.976;2023-11-19T13:37:56;3.75;;;1.70;;
48199;SDS011;33990;44.602;10.976;2023-11-19T13:40:23;5.35;;;1.63;;
48199;SDS011;33990;44.602;10.976;2023-11-19T13:42:52;5.15;;;1.80;;
48199;SDS011;33990;44.602;10.976;2023-11-19T13:45:19;3.40;;;1.50;;
48199;SDS011;33990;44.602;10.976;2023-11-19T13:47:48;4.78;;;1.63;;
48199;SDS011;33990;44.602;10.976;2023-11-19T13:50:16;5.63;;;1.80;;
48199;SDS011;33990;44.602;10.976;2023-11-19T13:52:47;4.25;;;1.70;;
48199;SDS011;33990;44.602;10.976;2023-11-19T13:55:15;3.53;;;1.35;;
48199;SDS011;33990;44.602;10.976;2023-11-19T13:57:43;2.97;;;1.45;;
48199;SDS011;33990;44.602;10.976;2023-11-19T14:00:11;4.93;;;1.83;;
48199;SDS011;33990;44.602;10.976;2023-11-19T14:02:46;4.00;;;1.70;;
48199;SDS011;33990;44.602;10.976;2023-11-19T14:05:14;3.45;;;1.40;;
48199;SDS011;33990;44.602;10.976;2023-11-19T14:08:07;4.38;;;1.50;;
48199;SDS011;33990;44.602;10.976;2023-11-19T14:10:51;3.40;;;1.80;;
48199;SDS011;33990;44.602;10.976;2023-11-19T14:13:19;4.75;;;1.55;;
48199;SDS011;33990;44.602;10.976;2023-11-19T14:15:46;3.22;;;1.45;;
48199;SDS011;33990;44.602;10.976;2023-11-19T14:18:16;3.72;;;1.60;;
48199;SDS011;33990;44.602;10.976;2023-11-19T14:20:44;5.45;;;1.63;;
48199;SDS011;33990;44.602;10.976;2023-11-19T14:23:12;3.85;;;1.35;;
48199;SDS011;33990;44.602;10.976;2023-11-19T14:25:39;3.88;;;1.38;;
48199;SDS011;33990;44.602;10.976;2023-11-19T14:28:07;3.72;;;1.33;;
48199;SDS011;33990;44.602;10.976;2023-11-19T14:30:34;3.15;;;1.23;;
48199;SDS011;33990;44.602;10.976;2023-11-19T14:33:02;3.53;;;1.38;;
48199;SDS011;33990;44.602;10.976;2023-11-19T14:35:31;5.97;;;1.45;;
48199;SDS011;33990;44.602;10.976;2023-11-19T14:38:00;2.75;;;1.52;;
48199;SDS011;33990;44.602;10.976;2023-11-19T14:40:27;2.35;;;1.23;;
48199;SDS011;33990;44.602;10.976;2023-11-19T14:42:57;3.00;;;0.93;;
48199;SDS011;33990;44.602;10.976;2023-11-19T14:45:25;2.78;;;1.15;;
48199;SDS011;33990;44.602;10.976;2023-11-19T14:47:53;2.17;;;1.00;;
48199;SDS011;33990;44.602;10.976;2023-11-19T14:50:21;4.18;;;1.10;;
48199;SDS011;33990;44.602;10.976;2023-11-19T14:52:49;2.63;;;1.27;;
48199;SDS011;33990;44.602;10.976;2023-11-19T14:55:16;3.08;;;1.58;;
48199;SDS011;33990;44.602;10.976;2023-11-19T14:57:43;3.40;;;1.23;;
48199;SDS011;33990;44.602;10.976;2023-11-19T15:00:23;3.35;;;1.48;;
48199;SDS011;33990;44.602;10.976;2023-11-19T15:02:52;3.28;;;1.40;;
48199;SDS011;33990;44.602;10.976;2023-11-19T15:05:20;2.30;;;1.20;;
48199;SDS011;33990;44.602;10.976;2023-11-19T15:07:48;2.10;;;0.93;;
48199;SDS011;33990;44.602;10.976;2023-11-19T15:10:15;2.42;;;1.17;;
48199;SDS011;33990;44.602;10.976;2023-11-19T15:12:43;2.83;;;1.40;;
48199;SDS011;33990;44.602;10.976;2023-11-19T15:15:10;2.72;;;1.40;;